Time;durP1;ratioP1;P1;durP2;ratioP2;P2;SDS_P1;SDS_P2;PMS_P1;PMS_P2;Temp;Humidity;BMP_temperature;BMP_pressure;BME280_temperature;BME280_humidity;BME280_pressure;Samples;Min_cycle;Max_cycle;Signal;HPM_P1;HPM_P2
2023/11/08 00:01:34;;;;;;;;;;;;;;;16.40;57.16;100997.44;5096461;28;1090;-55
2023/11/08 00:03:59;;;;;;;;;;;;;;;16.31;56.68;100993.53;5098912;28;1110;-50
2023/11/08 00:06:26;;;;;;;;;;;;;;;16.21;56.24;100988.81;5080275;28;1013;-48
2023/11/08 00:08:52;;;;;;;;;;;;;;;16.07;56.34;100993.97;5082697;28;1898;-49
2023/11/08 00:11:23;;;;;;;;;;;;;;;16.14;56.94;100981.94;5078498;28;1090;-47
2023/11/08 00:13:49;;;;;;;;;;;;;;;17.32;57.01;100984.25;5090392;28;1026;-48
2023/11/08 00:16:17;;;;;;;;;;;;;;;16.69;57.50;100979.69;5084717;28;1078;-53
2023/11/08 00:18:42;;;;;;;;;;;;;;;16.41;57.31;100977.13;5085566;28;1065;-49
2023/11/08 00:21:08;;;;;;;;;;;;;;;16.22;57.12;100968.53;5083221;28;1078;-51
2023/11/08 00:23:33;;;;;;;;;;;;;;;16.20;56.61;100958.91;5098106;28;1065;-53
2023/11/08 00:25:59;;;;;;;;;;;;;;;16.04;56.42;100956.06;5093133;28;1124;-54
2023/11/08 00:28:24;;;;;;;;;;;;;;;16.14;57.02;100957.22;5090032;28;1130;-54
2023/11/08 00:30:50;;;;;;;;;;;;;;;17.09;57.12;100959.78;5092451;28;1994;-54
2023/11/08 00:33:16;;;;;;;;;;;;;;;16.51;57.44;100961.78;5083765;28;944;-56
2023/11/08 00:35:42;;;;;;;;;;;;;;;16.29;57.28;100940.03;5096726;28;1138;-48
2023/11/08 00:38:07;;;;;;;;;;;;;;;16.16;56.93;100935.84;5085735;28;1085;-49
2023/11/08 00:40:33;;;;;;;;;;;;;;;16.51;57.95;100937.06;5096425;28;1047;-51
2023/11/08 00:42:58;;;;;;;;;;;;;;;17.09;57.17;100929.56;5086078;28;1037;-51
2023/11/08 00:45:24;;;;;;;;;;;;;;;16.54;57.53;100934.63;5090761;28;1180;-51
2023/11/08 00:47:52;;;;;;;;;;;;;;;16.36;57.09;100924.13;5089328;28;1078;-49
2023/11/08 00:50:17;;;;;;;;;;;;;;;16.20;56.62;100917.75;5066093;28;1922;-52
2023/11/08 00:52:43;;;;;;;;;;;;;;;16.14;56.16;100919.63;5067454;28;1435;-49
2023/11/08 00:55:08;;;;;;;;;;;;;;;16.02;55.91;100919.88;5077719;28;1130;-51
2023/11/08 00:57:34;;;;;;;;;;;;;;;17.03;57.62;100918.84;5084220;28;921;-51
2023/11/08 01:00:00;;;;;;;;;;;;;;;16.79;57.53;100907.50;5096091;28;1202;-51
2023/11/08 01:02:26;;;;;;;;;;;;;;;16.46;57.21;100920.59;5097687;28;1045;-52
2023/11/08 01:04:51;;;;;;;;;;;;;;;16.24;56.99;100906.00;5083652;28;1105;-48
2023/11/08 01:07:17;;;;;;;;;;;;;;;16.15;56.38;100913.06;5078637;28;1270;-50
2023/11/08 01:09:42;;;;;;;;;;;;;;;16.07;56.12;100900.72;5059715;28;1910;-51
2023/11/08 01:12:08;;;;;;;;;;;;;;;17.01;57.50;100897.16;5070508;28;1194;-51
2023/11/08 01:14:33;;;;;;;;;;;;;;;16.75;57.55;100897.06;5066194;28;1188;-50
2023/11/08 01:16:59;;;;;;;;;;;;;;;16.46;57.46;100890.41;5097438;28;1206;-53
2023/11/08 01:19:25;;;;;;;;;;;;;;;16.28;56.83;100881.56;5091902;28;1277;-50
2023/11/08 01:21:51;;;;;;;;;;;;;;;16.15;56.63;100868.34;5070490;28;1558;-48
2023/11/08 01:24:17;;;;;;;;;;;;;;;16.02;56.16;100872.41;5096689;28;1105;-53
2023/11/08 01:26:43;;;;;;;;;;;;;;;16.97;57.42;100874.06;5097238;28;1058;-48
2023/11/08 01:29:08;;;;;;;;;;;;;;;16.68;57.47;100869.06;5078799;28;1909;-49
2023/11/08 01:31:34;;;;;;;;;;;;;;;16.28;57.34;100845.06;5076103;28;1105;-51
2023/11/08 01:33:59;;;;;;;;;;;;;;;16.21;56.96;100850.81;5092403;28;940;-48
2023/11/08 01:36:25;;;;;;;;;;;;;;;16.11;56.47;100856.28;5077139;28;1166;-52
2023/11/08 01:38:50;;;;;;;;;;;;;;;16.02;56.16;100853.19;5094638;28;1030;-51
2023/11/08 01:41:16;;;;;;;;;;;;;;;16.83;57.63;100856.44;5085197;28;1169;-49
2023/11/08 01:43:41;;;;;;;;;;;;;;;17.12;57.23;100869.66;5071792;28;1090;-49
2023/11/08 01:46:27;;;;;;;;;;;;;;;16.61;57.38;100860.25;5069365;28;1146;-54
2023/11/08 01:48:53;;;;;;;;;;;;;;;16.32;56.88;100857.16;5076034;28;1910;-50
2023/11/08 01:51:18;;;;;;;;;;;;;;;16.26;56.30;100859.06;5059221;28;1142;-49
2023/11/08 01:53:44;;;;;;;;;;;;;;;16.10;56.38;100846.38;5088856;28;1074;-52
2023/11/08 01:56:13;;;;;;;;;;;;;;;16.02;55.96;100842.22;5086220;28;1130;-47
2023/11/08 01:58:39;;;;;;;;;;;;;;;16.58;57.58;100841.59;5084336;28;1165;-49
2023/11/08 02:01:08;;;;;;;;;;;;;;;17.12;57.07;100832.03;5078457;28;1225;-52
2023/11/08 02:03:37;;;;;;;;;;;;;;;16.56;57.46;100830.03;5078356;28;1118;-47
2023/11/08 02:06:03;;;;;;;;;;;;;;;16.33;56.93;100823.97;5094997;28;1116;-52
2023/11/08 02:08:29;;;;;;;;;;;;;;;16.20;56.48;100827.22;5060737;28;1535;-53
2023/11/08 02:10:54;;;;;;;;;;;;;;;16.12;56.43;100834.06;5061858;28;1914;-49
2023/11/08 02:13:22;;;;;;;;;;;;;;;16.04;56.61;100832.63;5103227;28;1618;-47
2023/11/08 02:15:48;;;;;;;;;;;;;;;17.15;57.52;100827.91;5090984;28;1149;-46
2023/11/08 02:18:14;;;;;;;;;;;;;;;16.72;57.78;100831.72;5097002;28;1268;-46
2023/11/08 02:20:39;;;;;;;;;;;;;;;16.46;57.26;100824.53;5087099;28;1418;-48
2023/11/08 02:23:05;;;;;;;;;;;;;;;16.26;56.73;100809.69;5096191;28;1298;-49
2023/11/08 02:25:30;;;;;;;;;;;;;;;16.16;56.44;100798.66;5097122;28;1566;-46
2023/11/08 02:27:56;;;;;;;;;;;;;;;16.01;56.21;100785.75;5078238;28;1095;-50
2023/11/08 02:30:23;;;;;;;;;;;;;;;15.96;55.89;100788.47;5089974;28;1906;-50
2023/11/08 02:32:49;;;;;;;;;;;;;;;16.70;57.81;100778.97;5082580;28;1070;-50
2023/11/08 02:35:15;;;;;;;;;;;;;;;17.19;57.16;100787.78;5077728;28;1106;-52
2023/11/08 02:37:41;;;;;;;;;;;;;;;16.59;57.72;100800.13;5075673;28;1058;-51
2023/11/08 02:40:10;;;;;;;;;;;;;;;16.37;57.17;100805.88;5094323;28;1121;-48
2023/11/08 02:42:39;;;;;;;;;;;;;;;16.23;56.82;100804.75;5099321;28;1436;-47
2023/11/08 02:45:05;;;;;;;;;;;;;;;16.52;58.02;100829.78;5068905;28;2293;-47
2023/11/08 02:47:30;;;;;;;;;;;;;;;16.93;57.51;100824.34;5071661;28;1229;-50
2023/11/08 02:49:58;;;;;;;;;;;;;;;16.50;57.65;100814.66;5061870;28;1979;-51
2023/11/08 02:52:24;;;;;;;;;;;;;;;16.35;57.00;100805.28;5093019;28;1217;-53
2023/11/08 02:54:51;;;;;;;;;;;;;;;16.19;56.56;100798.97;5099543;28;1141;-47
2023/11/08 02:57:17;;;;;;;;;;;;;;;16.12;56.23;100787.41;5090944;28;1145;-51
2023/11/08 02:59:42;;;;;;;;;;;;;;;16.91;57.53;100790.84;5085491;28;1571;-49
2023/11/08 03:02:08;;;;;;;;;;;;;;;16.75;57.75;100806.44;5087088;28;911;-47
2023/11/08 03:04:33;;;;;;;;;;;;;;;16.45;57.50;100811.91;5080070;28;1032;-52
2023/11/08 03:06:59;;;;;;;;;;;;;;;16.28;57.07;100801.19;5091636;28;1566;-52
2023/11/08 03:09:24;;;;;;;;;;;;;;;16.17;56.54;100805.81;5093403;28;1975;-51
2023/11/08 03:11:50;;;;;;;;;;;;;;;16.07;56.21;100806.59;5091246;28;1089;-52
2023/11/08 03:14:17;;;;;;;;;;;;;;;16.01;55.81;100797.53;5061102;28;1282;-49
2023/11/08 03:16:43;;;;;;;;;;;;;;;16.61;57.78;100794.38;5079842;28;1110;-50
2023/11/08 03:19:11;;;;;;;;;;;;;;;17.21;57.22;100799.34;5079099;28;1133;-52
2023/11/08 03:21:37;;;;;;;;;;;;;;;16.62;57.37;100808.91;5080054;28;882;-49
2023/11/08 03:24:04;;;;;;;;;;;;;;;16.35;56.91;100808.03;5081414;28;1050;-46
2023/11/08 03:26:30;;;;;;;;;;;;;;;16.20;56.76;100788.78;5089731;28;1082;-50
2023/11/08 03:28:55;;;;;;;;;;;;;;;16.10;56.22;100783.28;5099211;28;1982;-51
2023/11/08 03:31:21;;;;;;;;;;;;;;;16.03;56.10;100773.41;5103932;28;1176;-49
2023/11/08 03:33:46;;;;;;;;;;;;;;;16.70;57.74;100769.94;5092771;28;1045;-48
2023/11/08 03:36:12;;;;;;;;;;;;;;;16.96;57.47;100775.44;5085156;28;1057;-52
2023/11/08 03:38:37;;;;;;;;;;;;;;;16.49;57.58;100788.31;5099167;28;1066;-54
2023/11/08 03:41:03;;;;;;;;;;;;;;;16.29;56.81;100778.13;5082001;28;1062;-54
2023/11/08 03:43:28;;;;;;;;;;;;;;;16.15;56.60;100775.09;5078880;28;1026;-57
2023/11/08 03:45:54;;;;;;;;;;;;;;;16.25;57.45;100773.16;5078231;28;1104;-56
2023/11/08 03:48:20;;;;;;;;;;;;;;;17.44;57.00;100767.66;5078948;28;1039;-55
2023/11/08 03:50:45;;;;;;;;;;;;;;;16.73;57.49;100761.13;5092113;28;1909;-54
2023/11/08 03:53:10;;;;;;;;;;;;;;;16.48;57.01;100765.53;5087525;28;1108;-53
2023/11/08 03:55:36;;;;;;;;;;;;;;;16.26;56.77;100760.28;5100338;28;1566;-55
2023/11/08 03:58:02;;;;;;;;;;;;;;;16.16;56.38;100763.00;5098649;28;1664;-54
2023/11/08 04:00:27;;;;;;;;;;;;;;;16.08;56.07;100775.34;5097715;28;1375;-53
2023/11/08 04:02:53;;;;;;;;;;;;;;;15.96;55.94;100767.34;5096475;28;1237;-56
2023/11/08 04:05:18;;;;;;;;;;;;;;;16.71;57.97;100783.38;5095907;28;1003;-52
2023/11/08 04:07:44;;;;;;;;;;;;;;;17.12;57.68;100768.00;5093989;28;1163;-55
2023/11/08 04:10:10;;;;;;;;;;;;;;;16.58;57.66;100770.22;5090649;28;1906;-52
2023/11/08 04:12:37;;;;;;;;;;;;;;;16.37;57.14;100772.94;5084493;28;1030;-49
2023/11/08 04:15:02;;;;;;;;;;;;;;;16.22;56.54;100770.16;5098680;28;1133;-55
2023/11/08 04:17:28;;;;;;;;;;;;;;;16.07;56.22;100763.56;5084040;28;1034;-56
2023/11/08 04:19:54;;;;;;;;;;;;;;;16.82;58.36;100756.75;5086662;28;1039;-52
2023/11/08 04:22:20;;;;;;;;;;;;;;;16.83;57.96;100765.81;5097750;28;1046;-50
2023/11/08 04:24:45;;;;;;;;;;;;;;;16.43;57.81;100762.78;5098110;28;1037;-52
2023/11/08 04:27:11;;;;;;;;;;;;;;;16.28;57.04;100766.31;5084601;28;1161;-50
2023/11/08 04:29:37;;;;;;;;;;;;;;;16.13;56.91;100766.28;5089523;28;1906;-51
2023/11/08 04:32:03;;;;;;;;;;;;;;;16.05;56.45;100768.47;5091295;28;1125;-52
2023/11/08 04:34:29;;;;;;;;;;;;;;;15.99;56.29;100771.47;5086241;28;894;-54
2023/11/08 04:36:54;;;;;;;;;;;;;;;16.30;57.70;100772.38;5084250;28;1089;-52
2023/11/08 04:39:21;;;;;;;;;;;;;;;16.97;57.70;100769.69;5090410;28;1150;-51
2023/11/08 04:41:48;;;;;;;;;;;;;;;16.40;58.00;100786.09;5091346;28;1154;-52
2023/11/08 04:44:13;;;;;;;;;;;;;;;16.21;57.27;100776.72;5084655;28;1379;-52
2023/11/08 04:46:40;;;;;;;;;;;;;;;16.07;56.90;100768.19;5088422;28;949;-53
2023/11/08 04:49:06;;;;;;;;;;;;;;;15.99;56.59;100780.53;5096348;28;1982;-53
2023/11/08 04:51:32;;;;;;;;;;;;;;;17.09;57.83;100763.88;5090248;28;1533;-53
2023/11/08 04:53:57;;;;;;;;;;;;;;;16.68;58.29;100756.47;5079360;28;1114;-49
2023/11/08 04:56:22;;;;;;;;;;;;;;;16.39;57.96;100765.22;5077303;28;1050;-48
2023/11/08 04:58:48;;;;;;;;;;;;;;;16.19;57.46;100776.19;5083149;28;1059;-50
2023/11/08 05:01:15;;;;;;;;;;;;;;;16.10;57.11;100761.34;5077803;28;1055;-47
2023/11/08 05:03:40;;;;;;;;;;;;;;;15.98;56.41;100765.16;5090723;28;1111;-49
2023/11/08 05:06:06;;;;;;;;;;;;;;;15.89;56.28;100775.84;5089319;28;995;-52
2023/11/08 05:08:31;;;;;;;;;;;;;;;16.63;58.82;100759.22;5097406;28;1049;-51
2023/11/08 05:10:57;;;;;;;;;;;;;;;17.01;58.26;100765.28;5095084;28;1906;-49
2023/11/08 05:13:24;;;;;;;;;;;;;;;16.49;57.96;100755.38;5077070;28;1138;-51
2023/11/08 05:15:50;;;;;;;;;;;;;;;16.25;57.58;100758.63;5062586;28;1091;-51
2023/11/08 05:18:15;;;;;;;;;;;;;;;16.11;57.10;100750.09;5096475;28;1094;-53
2023/11/08 05:20:43;;;;;;;;;;;;;;;15.99;56.75;100753.09;5079992;28;1086;-50
2023/11/08 05:23:11;;;;;;;;;;;;;;;15.94;56.29;100747.59;5092061;28;922;-45
2023/11/08 05:25:42;;;;;;;;;;;;;;;16.62;58.59;100746.59;5093051;28;1117;-50
2023/11/08 05:28:08;;;;;;;;;;;;;;;16.84;58.42;100737.25;5088518;28;1142;-50
2023/11/08 05:30:35;;;;;;;;;;;;;;;16.43;57.81;100743.56;5083129;28;1906;-50
2023/11/08 05:33:00;;;;;;;;;;;;;;;17.64;55.92;100744.75;5096910;28;1058;-52
2023/11/08 05:35:26;;;;;;;;;;;;;;;16.82;55.44;100747.69;5091395;28;1178;-47
2023/11/08 05:37:51;;;;;;;;;;;;;;;16.53;53.27;100742.75;5088180;28;1035;-48
2023/11/08 05:40:18;;;;;;;;;;;;;;;17.18;55.79;100758.66;5082906;28;1020;-50
2023/11/08 05:42:44;;;;;;;;;;;;;;;16.79;53.81;100750.97;5096270;28;1097;-45
2023/11/08 05:45:10;;;;;;;;;;;;;;;16.60;51.56;100746.03;5078400;28;1134;-51
2023/11/08 05:47:36;;;;;;;;;;;;;;;16.39;50.65;100750.69;5091252;28;1112;-49
2023/11/08 05:50:01;;;;;;;;;;;;;;;17.28;54.73;100758.66;5075985;28;1968;-47
2023/11/08 05:52:27;;;;;;;;;;;;;;;16.89;53.08;100742.78;5089834;28;1014;-48
2023/11/08 05:54:52;;;;;;;;;;;;;;;16.88;51.17;100758.41;5076114;28;1255;-47
2023/11/08 05:57:18;;;;;;;;;;;;;;;16.83;49.79;100760.31;5089418;28;1074;-49
2023/11/08 05:59:44;;;;;;;;;;;;;;;16.68;48.95;100756.47;5084565;28;1543;-48
2023/11/08 06:02:09;;;;;;;;;;;;;;;16.56;48.35;100736.72;5083239;28;1099;-47
2023/11/08 06:04:35;;;;;;;;;;;;;;;16.48;47.93;100735.34;5088828;28;1046;-47
2023/11/08 06:07:01;;;;;;;;;;;;;;;16.39;47.76;100739.72;5096175;28;1338;-44
2023/11/08 06:09:26;;;;;;;;;;;;;;;16.34;47.24;100754.28;5093098;28;1898;-47
2023/11/08 06:11:52;;;;;;;;;;;;;;;16.39;47.07;100759.75;5091955;28;1009;-48
2023/11/08 06:14:17;;;;;;;;;;;;;;;16.24;47.01;100746.00;5085656;28;1111;-45
2023/11/08 06:16:43;;;;;;;;;;;;;;;16.23;46.71;100741.63;5094179;28;1102;-48
2023/11/08 06:19:09;;;;;;;;;;;;;;;16.19;46.40;100749.56;5102438;28;1105;-47
2023/11/08 06:21:34;;;;;;;;;;;;;;;16.18;46.52;100758.91;5084828;28;1081;-50
2023/11/08 06:24:00;;;;;;;;;;;;;;;16.06;46.40;100756.41;5094887;28;1074;-47
2023/11/08 06:26:26;;;;;;;;;;;;;;;16.15;45.93;100756.69;5094193;28;1162;-49
2023/11/08 06:28:52;;;;;;;;;;;;;;;16.04;46.33;100760.50;5095921;28;1008;-46
2023/11/08 06:31:20;;;;;;;;;;;;;;;16.12;46.08;100764.63;5082210;28;1921;-46
2023/11/08 06:33:46;;;;;;;;;;;;;;;17.08;50.16;100760.34;5090861;28;1429;-46
2023/11/08 06:36:13;;;;;;;;;;;;;;;16.62;49.88;100770.47;5082727;28;1070;-51
2023/11/08 06:38:39;;;;;;;;;;;;;;;16.40;48.81;100775.13;5084391;28;1257;-47
2023/11/08 06:41:05;;;;;;;;;;;;;;;16.35;47.85;100769.63;5094753;28;1066;-48
2023/11/08 06:43:30;;;;;;;;;;;;;;;16.33;46.94;100760.84;5101375;28;1146;-44
2023/11/08 06:45:56;;;;;;;;;;;;;;;16.31;46.66;100759.47;5102965;28;1323;-45
2023/11/08 06:48:21;;;;;;;;;;;;;;;16.19;46.34;100759.72;5095571;28;1015;-50
2023/11/08 06:50:47;;;;;;;;;;;;;;;16.15;46.32;100761.38;5095668;28;1970;-48
2023/11/08 06:53:12;;;;;;;;;;;;;;;16.20;46.46;100761.34;5095747;28;1215;-45
2023/11/08 06:55:38;;;;;;;;;;;;;;;16.88;48.98;100765.81;5102794;28;1268;-48
2023/11/08 06:58:04;;;;;;;;;;;;;;;16.56;48.54;100753.19;5103127;28;1090;-56
2023/11/08 07:00:30;;;;;;;;;;;;;;;16.41;47.60;100756.72;5089638;28;983;-55
2023/11/08 07:02:55;;;;;;;;;;;;;;;16.29;47.10;100756.19;5101585;28;1113;-59
2023/11/08 07:05:22;;;;;;;;;;;;;;;16.30;46.67;100750.41;5089684;28;1254;-59
2023/11/08 07:07:48;;;;;;;;;;;;;;;16.24;46.41;100740.53;5100011;28;1099;-60
2023/11/08 07:10:13;;;;;;;;;;;;;;;16.26;45.76;100724.63;5082201;28;1905;-60
2023/11/08 07:12:40;;;;;;;;;;;;;;;16.18;45.88;100723.22;5097881;28;1245;-59
2023/11/08 07:15:05;;;;;;;;;;;;;;;16.14;45.77;100730.34;5088614;28;1355;-61
2023/11/08 07:17:31;;;;;;;;;;;;;;;16.05;45.61;100730.06;5093019;28;1371;-59
2023/11/08 07:19:57;;;;;;;;;;;;;;;16.06;45.52;100728.97;5090791;28;1403;-60
2023/11/08 07:22:22;;;;;;;;;;;;;;;16.88;48.14;100710.88;5100885;28;1144;-58
2023/11/08 07:24:48;;;;;;;;;;;;;;;16.73;49.39;100701.56;5101765;28;1125;-58
2023/11/08 07:27:13;;;;;;;;;;;;;;;16.57;48.48;100708.16;5100210;28;1469;-61
2023/11/08 07:29:39;;;;;;;;;;;;;;;16.41;47.52;100712.81;5083268;28;1901;-63
2023/11/08 07:32:04;;;;;;;;;;;;;;;16.36;47.10;100702.66;5082143;28;1102;-62
2023/11/08 07:34:32;;;;;;;;;;;;;;;16.27;46.57;100685.13;5094251;28;1413;-65
2023/11/08 07:36:58;;;;;;;;;;;;;;;16.79;47.79;100679.56;5092242;28;1298;-60
2023/11/08 07:39:24;;;;;;;;;;;;;;;16.89;49.64;100674.94;5095329;28;1256;-61
2023/11/08 07:41:49;;;;;;;;;;;;;;;16.65;48.90;100676.56;5098676;28;1374;-63
2023/11/08 07:44:15;;;;;;;;;;;;;;;16.56;47.75;100684.56;5088611;28;1114;-64
2023/11/08 07:46:40;;;;;;;;;;;;;;;16.54;46.79;100705.97;5090950;28;1059;-61
2023/11/08 07:49:06;;;;;;;;;;;;;;;16.46;46.50;100718.31;5092342;28;1975;-64
2023/11/08 07:51:32;;;;;;;;;;;;;;;16.38;46.17;100711.47;5097240;28;1079;-63
2023/11/08 07:53:59;;;;;;;;;;;;;;;16.34;46.07;100718.59;5082917;28;1144;-63
2023/11/08 07:56:24;;;;;;;;;;;;;;;16.31;45.90;100708.16;5092679;28;1242;-63
2023/11/08 07:58:50;;;;;;;;;;;;;;;16.24;45.79;100700.22;5081384;28;1027;-63
2023/11/08 08:01:15;;;;;;;;;;;;;;;16.20;45.77;100684.53;5082474;28;1128;-62
2023/11/08 08:03:42;;;;;;;;;;;;;;;16.21;45.26;100680.72;5077824;28;1110;-63
2023/11/08 08:06:08;;;;;;;;;;;;;;;16.12;45.37;100685.94;5080153;28;1167;-63
2023/11/08 08:08:33;;;;;;;;;;;;;;;16.14;45.27;100685.66;5089527;28;1037;-63
2023/11/08 08:10:59;;;;;;;;;;;;;;;16.07;45.23;100681.25;5077398;28;1897;-62
2023/11/08 08:13:25;;;;;;;;;;;;;;;16.10;45.03;100662.59;5078062;28;1107;-62
2023/11/08 08:15:50;;;;;;;;;;;;;;;16.05;45.06;100661.50;5092410;28;1059;-62
2023/11/08 08:18:16;;;;;;;;;;;;;;;17.08;48.58;100663.34;5097351;28;1042;-62
2023/11/08 08:20:41;;;;;;;;;;;;;;;16.59;48.71;100667.53;5082992;28;1142;-63
2023/11/08 08:23:10;;;;;;;;;;;;;;;16.44;47.90;100673.88;5085569;28;1057;-62
2023/11/08 08:25:39;;;;;;;;;;;;;;;16.38;46.92;100672.22;5097448;28;1101;-62
2023/11/08 08:28:05;;;;;;;;;;;;;;;16.52;47.49;100672.47;5089237;28;1130;-63
2023/11/08 08:30:30;;;;;;;;;;;;;;;16.85;48.77;100676.56;5090759;28;1901;-61
2023/11/08 08:32:59;;;;;;;;;;;;;;;16.62;48.22;100682.63;5077741;28;1221;-62
2023/11/08 08:35:24;;;;;;;;;;;;;;;16.51;47.29;100670.81;5092752;28;1026;-62
2023/11/08 08:37:50;;;;;;;;;;;;;;;16.49;46.77;100681.28;5098025;28;1066;-62
2023/11/08 08:40:17;;;;;;;;;;;;;;;16.38;46.27;100675.78;5094583;28;1117;-61
2023/11/08 08:42:43;;;;;;;;;;;;;;;16.37;46.10;100679.63;5077342;28;1177;-62
2023/11/08 08:45:08;;;;;;;;;;;;;;;16.28;45.84;100680.44;5090868;28;1027;-62
2023/11/08 08:47:35;;;;;;;;;;;;;;;16.33;45.57;100678.53;5076941;28;1054;-62
2023/11/08 08:50:01;;;;;;;;;;;;;;;16.21;45.75;100675.22;5093363;28;1902;-62
2023/11/08 08:52:26;;;;;;;;;;;;;;;16.24;45.33;100677.41;5096887;28;1022;-62
2023/11/08 08:54:52;;;;;;;;;;;;;;;16.17;45.39;100669.47;5083024;28;1015;-60
2023/11/08 08:57:17;;;;;;;;;;;;;;;16.88;47.43;100661.44;5090369;28;1048;-61
2023/11/08 08:59:43;;;;;;;;;;;;;;;17.17;49.23;100663.59;5091337;28;1154;-60
2023/11/08 09:02:09;;;;;;;;;;;;;;;16.76;48.85;100667.25;5097162;28;1480;-59
2023/11/08 09:04:35;;;;;;;;;;;;;;;16.64;47.69;100663.97;5090229;28;1370;-61
2023/11/08 09:07:02;;;;;;;;;;;;;;;16.55;47.26;100656.28;5081864;28;1405;-60
2023/11/08 09:09:28;;;;;;;;;;;;;;;16.51;46.69;100651.59;5085773;28;1909;-60
2023/11/08 09:11:53;;;;;;;;;;;;;;;16.52;46.38;100647.78;5076413;28;1189;-60
2023/11/08 09:14:19;;;;;;;;;;;;;;;16.50;46.13;100652.72;5092388;28;1022;-59
2023/11/08 09:16:44;;;;;;;;;;;;;;;16.43;46.37;100631.84;5091099;28;1268;-53
2023/11/08 09:19:10;;;;;;;;;;;;;;;17.14;48.39;100636.66;5092718;28;1109;-58
2023/11/08 09:21:38;;;;;;;;;;;;;;;16.82;47.93;100635.91;5097044;28;1421;-58
2023/11/08 09:24:06;;;;;;;;;;;;;;;16.62;47.24;100620.31;5089258;28;1231;-57
2023/11/08 09:26:33;;;;;;;;;;;;;;;16.60;46.82;100628.81;5078279;28;1442;-58
2023/11/08 09:28:58;;;;;;;;;;;;;;;16.54;46.60;100623.63;5089540;28;1386;-58
2023/11/08 09:31:26;;;;;;;;;;;;;;;16.46;46.14;100624.19;5091022;28;1981;-58
2023/11/08 09:33:52;;;;;;;;;;;;;;;16.51;45.88;100613.19;5085699;28;1461;-58
2023/11/08 09:36:18;;;;;;;;;;;;;;;16.40;45.88;100624.19;5089820;28;1405;-58
2023/11/08 09:38:44;;;;;;;;;;;;;;;16.42;45.62;100621.16;5086826;28;1453;-57
2023/11/08 09:41:09;;;;;;;;;;;;;;;17.15;47.87;100610.84;5095610;28;1128;-58
2023/11/08 09:43:35;;;;;;;;;;;;;;;16.88;47.88;100595.53;5073172;28;1328;-59
2023/11/08 09:46:04;;;;;;;;;;;;;;;16.65;47.56;100603.28;5096381;28;1129;-57
2023/11/08 09:48:30;;;;;;;;;;;;;;;16.59;46.69;100602.47;5096394;28;1292;-58
2023/11/08 09:50:55;;;;;;;;;;;;;;;16.51;46.56;100599.47;5090187;28;1917;-56
2023/11/08 09:53:21;;;;;;;;;;;;;;;16.44;46.24;100588.78;5095896;28;1311;-58
2023/11/08 09:55:48;;;;;;;;;;;;;;;16.40;46.11;100577.53;5093365;28;1125;-57
2023/11/08 09:58:14;;;;;;;;;;;;;;;16.46;45.56;100581.09;5096269;28;1394;-57
2023/11/08 10:00:40;;;;;;;;;;;;;;;16.40;45.56;100569.28;5095953;28;1062;-57
2023/11/08 10:03:05;;;;;;;;;;;;;;;16.42;45.48;100567.13;5077241;28;1472;-57
2023/11/08 10:05:34;;;;;;;;;;;;;;;16.35;45.45;100566.56;5065665;28;1328;-57
2023/11/08 10:08:07;;;;;;;;;;;;;;;16.25;45.73;100563.84;5086436;28;1115;-62
2023/11/08 10:10:32;;;;;;;;;;;;;;;17.14;47.61;100557.81;5094523;28;1918;-56
2023/11/08 10:13:05;;;;;;;;;;;;;;;16.77;48.11;100562.63;5076905;28;1099;-58
2023/11/08 10:15:33;;;;;;;;;;;;;;;16.67;47.46;100568.13;5084565;28;1131;-58
2023/11/08 10:17:58;;;;;;;;;;;;;;;16.57;46.68;100563.50;5095162;28;1022;-61
2023/11/08 10:20:27;;;;;;;;;;;;;;;16.55;46.22;100557.47;5095248;28;1187;-61
2023/11/08 10:22:53;;;;;;;;;;;;;;;16.46;46.17;100561.88;5095600;28;1061;-61
2023/11/08 10:25:19;;;;;;;;;;;;;;;16.45;46.00;100553.94;5085929;28;848;-59
2023/11/08 10:27:45;;;;;;;;;;;;;;;16.49;45.75;100555.00;5091996;28;1035;-59
2023/11/08 10:30:18;;;;;;;;;;;;;;;16.34;45.72;100534.75;5077590;28;1909;-61
2023/11/08 10:32:44;;;;;;;;;;;;;;;17.05;47.75;100541.09;5078882;28;1221;-61
2023/11/08 10:35:19;;;;;;;;;;;;;;;16.69;47.91;100532.16;5086469;28;1086;-57
2023/11/08 10:37:45;;;;;;;;;;;;;;;16.62;47.23;100531.63;5095196;28;1089;-61
2023/11/08 10:40:13;;;;;;;;;;;;;;;16.57;46.61;100525.06;5084156;28;1154;-60
2023/11/08 10:42:38;;;;;;;;;;;;;;;16.56;46.29;100536.31;5080819;28;1145;-58
2023/11/08 10:45:07;;;;;;;;;;;;;;;16.46;46.03;100539.09;5083633;28;988;-58
2023/11/08 10:47:34;;;;;;;;;;;;;;;16.41;45.79;100543.50;5091411;28;1086;-58
2023/11/08 10:49:59;;;;;;;;;;;;;;;16.43;45.67;100530.31;5064324;28;1977;-60
2023/11/08 10:52:25;;;;;;;;;;;;;;;16.60;46.07;100534.66;5093807;28;1029;-57
2023/11/08 10:54:51;;;;;;;;;;;;;;;16.86;47.65;100524.41;5082934;28;1200;-60
2023/11/08 10:57:16;;;;;;;;;;;;;;;16.62;47.36;100510.53;5082242;28;1134;-57
2023/11/08 10:59:42;;;;;;;;;;;;;;;16.60;46.63;100534.66;5089619;28;1054;-59
2023/11/08 11:02:17;;;;;;;;;;;;;;;16.49;46.38;100539.34;5059955;28;873;-58
2023/11/08 11:04:43;;;;;;;;;;;;;;;16.52;46.24;100548.97;5098918;28;1031;-57
2023/11/08 11:07:09;;;;;;;;;;;;;;;16.51;46.17;100548.16;5065806;28;1433;-58
2023/11/08 11:09:36;;;;;;;;;;;;;;;16.43;45.98;100537.75;5078073;28;1905;-56
2023/11/08 11:12:04;;;;;;;;;;;;;;;16.45;45.79;100510.00;5099152;28;1118;-57
2023/11/08 11:14:33;;;;;;;;;;;;;;;16.41;45.93;100518.81;5096857;28;1042;-55
2023/11/08 11:17:02;;;;;;;;;;;;;;;16.45;45.44;100523.72;5079293;28;1194;-54
2023/11/08 11:19:28;;;;;;;;;;;;;;;16.37;45.73;100517.72;5091345;28;1059;-52
2023/11/08 11:21:54;;;;;;;;;;;;;;;16.38;45.67;100508.41;5092923;28;1017;-58
2023/11/08 11:24:36;;;;;;;;;;;;;;;16.25;45.54;100511.72;5061107;28;1122;-57
2023/11/08 11:27:02;;;;;;;;;;;;;;;16.35;45.49;100521.84;5080966;28;1038;-58
2023/11/08 11:29:29;;;;;;;;;;;;;;;16.24;45.49;100521.88;5092224;28;1906;-58
2023/11/08 11:31:54;;;;;;;;;;;;;;;16.22;45.43;100523.25;5084891;28;978;-52
2023/11/08 11:34:20;;;;;;;;;;;;;;;16.23;45.23;100513.94;5079386;28;1097;-55
2023/11/08 11:37:18;;;;;;;;;;;;;;;16.18;45.60;100524.91;5090666;28;1122;-54
2023/11/08 11:39:52;;;;;;;;;;;;;;;16.26;45.20;100524.34;5072333;28;1303;-57
2023/11/08 11:42:18;;;;;;;;;;;;;;;16.18;45.45;100528.44;5086858;28;1225;-56
2023/11/08 11:44:54;;;;;;;;;;;;;;;16.23;45.31;100549.59;5078430;28;1135;-58
2023/11/08 11:47:22;;;;;;;;;;;;;;;17.01;47.48;100551.03;5078405;28;1070;-58
2023/11/08 11:49:48;;;;;;;;;;;;;;;16.89;48.40;100539.53;5079754;28;1980;-56
2023/11/08 11:52:14;;;;;;;;;;;;;;;16.68;47.77;100536.03;5098730;28;1121;-56
2023/11/08 11:54:49;;;;;;;;;;;;;;;16.56;47.22;100539.06;5093646;28;1256;-53
2023/11/08 11:57:18;;;;;;;;;;;;;;;16.50;46.65;100537.44;5084712;28;1375;-55
2023/11/08 11:59:45;;;;;;;;;;;;;;;16.50;46.25;100540.19;5093817;28;1328;-54
2023/11/08 12:02:11;;;;;;;;;;;;;;;16.41;46.03;100531.69;5080883;28;1055;-54
2023/11/08 12:04:37;;;;;;;;;;;;;;;16.81;47.05;100529.09;5096674;28;1371;-53
2023/11/08 12:07:02;;;;;;;;;;;;;;;16.81;47.82;100529.09;5088133;28;1224;-52
2023/11/08 12:09:28;;;;;;;;;;;;;;;16.68;47.53;100520.38;5073452;28;1910;-52
2023/11/08 12:11:53;;;;;;;;;;;;;;;16.63;46.76;100525.06;5086782;28;1360;-55
2023/11/08 12:14:22;;;;;;;;;;;;;;;16.51;46.33;100526.19;5094326;28;1027;-52
2023/11/08 12:16:52;;;;;;;;;;;;;;;16.47;45.95;100513.31;5091964;28;1190;-54
2023/11/08 12:19:17;;;;;;;;;;;;;;;16.49;45.93;100511.09;5095320;28;1126;-52
2023/11/08 12:21:46;;;;;;;;;;;;;;;16.40;45.74;100528.13;5094023;28;1248;-52
2023/11/08 12:24:12;;;;;;;;;;;;;;;16.45;45.43;100529.22;5094635;28;1253;-55
2023/11/08 12:26:38;;;;;;;;;;;;;;;16.35;45.38;100539.13;5081136;28;1336;-52
2023/11/08 12:29:05;;;;;;;;;;;;;;;17.38;48.04;100544.22;5071210;28;1301;-50
2023/11/08 12:31:31;;;;;;;;;;;;;;;16.93;48.14;100555.16;5092302;28;1982;-55
2023/11/08 12:33:58;;;;;;;;;;;;;;;16.72;47.57;100565.38;5089239;28;1114;-57
2023/11/08 12:36:23;;;;;;;;;;;;;;;16.62;46.74;100562.69;5078777;28;1144;-58
2023/11/08 12:38:49;;;;;;;;;;;;;;;16.62;46.35;100570.06;5090945;28;889;-51
2023/11/08 12:41:17;;;;;;;;;;;;;;;16.57;45.93;100568.16;5083605;28;1201;-56
2023/11/08 12:43:54;;;;;;;;;;;;;;;16.47;45.79;100559.97;5086993;28;1198;-52